createdAt,value
2018-03-08T00:01:52.098Z,5.36
2018-03-08T00:04:20.551Z,-146.80
2018-03-08T00:06:49.082Z,-146.80
2018-03-08T00:09:17.542Z,-146.80
2018-03-08T00:11:46.009Z,-146.80
2018-03-08T00:14:14.540Z,-146.80
2018-03-08T00:16:42.984Z,5.62
2018-03-08T00:19:11.479Z,-146.80
2018-03-08T00:21:39.997Z,-146.80
2018-03-08T00:24:08.454Z,-146.80
2018-03-08T00:26:36.919Z,-146.80
2018-03-08T00:29:05.440Z,-146.80
2018-03-08T00:31:33.893Z,-146.80
2018-03-08T00:34:02.383Z,-146.80
2018-03-08T00:36:30.918Z,-146.80
2018-03-08T00:38:59.398Z,-146.80
2018-03-08T00:41:27.877Z,-146.80
2018-03-08T00:43:56.388Z,-146.80
2018-03-08T00:46:24.854Z,-146.80
2018-03-08T00:48:53.318Z,-146.80
2018-03-08T00:51:21.841Z,-146.80
2018-03-08T00:53:50.313Z,-146.80
2018-03-08T00:56:18.797Z,-146.80
2018-03-08T00:58:47.302Z,-146.80
2018-03-08T01:01:15.783Z,-146.80
2018-03-08T01:03:44.244Z,-146.80
2018-03-08T01:06:12.777Z,-146.80
2018-03-08T01:08:41.251Z,-146.80
2018-03-08T01:11:09.725Z,-146.80
2018-03-08T01:13:38.258Z,-146.80
2018-03-08T01:16:06.725Z,-146.80
2018-03-08T01:18:35.213Z,-146.80
2018-03-08T01:21:03.719Z,-146.80
2018-03-08T01:23:32.171Z,-146.80
2018-03-08T01:26:00.630Z,-146.80
2018-03-08T01:28:29.134Z,-146.80
2018-03-08T01:30:57.637Z,-146.80
2018-03-08T01:33:26.106Z,-146.80
2018-03-08T01:35:55.403Z,-146.80
2018-03-08T01:38:23.873Z,-146.80
2018-03-08T01:40:52.347Z,-146.80
2018-03-08T01:43:21.069Z,-146.80
2018-03-08T01:45:49.640Z,-146.80
2018-03-08T01:48:18.158Z,-146.80
2018-03-08T01:50:46.661Z,-146.80
2018-03-08T01:53:15.133Z,-146.80
2018-03-08T01:55:43.601Z,-146.80
2018-03-08T01:58:12.122Z,-146.80
2018-03-08T02:00:40.594Z,-146.80
2018-03-08T02:03:09.073Z,-146.80
2018-03-08T02:05:37.562Z,-146.80
2018-03-08T02:08:06.012Z,-146.80
2018-03-08T02:10:34.486Z,-146.80
2018-03-08T02:13:03.183Z,-146.80
2018-03-08T02:15:31.652Z,-146.80
2018-03-08T02:18:00.117Z,-146.80
2018-03-08T02:20:28.620Z,-146.80
2018-03-08T02:22:57.083Z,-146.80
2018-03-08T02:25:25.554Z,-146.80
2018-03-08T02:27:54.062Z,-146.80
2018-03-08T02:30:22.511Z,-146.80
2018-03-08T02:32:51.006Z,-146.80
2018-03-08T02:35:19.539Z,-146.80
2018-03-08T02:37:48.015Z,-146.80
2018-03-08T02:40:16.494Z,-146.80
2018-03-08T02:42:45.004Z,-146.80
2018-03-08T02:45:13.481Z,-146.80
2018-03-08T02:47:41.946Z,-146.80
2018-03-08T02:50:10.622Z,-146.80
2018-03-08T02:52:39.102Z,-146.80
2018-03-08T02:55:07.582Z,-146.80
2018-03-08T02:57:36.093Z,-146.80
2018-03-08T03:00:04.593Z,-146.80
2018-03-08T03:02:33.307Z,-146.80
2018-03-08T03:05:02.104Z,-146.80
2018-03-08T03:07:30.579Z,-146.80
2018-03-08T03:09:59.089Z,-146.80
2018-03-08T03:12:27.587Z,-146.80
2018-03-08T03:14:56.057Z,-146.80
2018-03-08T03:17:24.537Z,-146.80
2018-03-08T03:19:53.064Z,-146.80
2018-03-08T03:22:21.517Z,-146.80
2018-03-08T03:24:49.992Z,-146.80
2018-03-08T03:27:18.561Z,-146.80
2018-03-08T03:29:47.380Z,-146.80
2018-03-08T03:32:15.864Z,-146.80
2018-03-08T03:34:44.371Z,-146.80
2018-03-08T03:37:12.848Z,-146.80
2018-03-08T03:39:41.317Z,-146.80
2018-03-08T03:42:09.821Z,-146.80
2018-03-08T03:44:38.291Z,-146.80
2018-03-08T03:47:06.762Z,-146.80
2018-03-08T03:49:35.283Z,-146.80
2018-03-08T03:52:03.796Z,-146.80
2018-03-08T03:54:32.274Z,-146.80
2018-03-08T03:57:00.805Z,-146.80
2018-03-08T04:02:03.878Z,-146.80
2018-03-08T04:04:32.424Z,-146.80
2018-03-08T04:07:00.853Z,-146.80
2018-03-08T04:09:29.380Z,-146.80
2018-03-08T04:11:57.841Z,-146.80
2018-03-08T04:14:26.310Z,-146.80
2018-03-08T04:16:54.839Z,-146.80
2018-03-08T04:19:23.311Z,-146.80
2018-03-08T04:21:51.788Z,-146.80
2018-03-08T04:24:20.284Z,-146.80
2018-03-08T04:26:48.742Z,-146.80
2018-03-08T04:29:17.194Z,-146.80
2018-03-08T04:31:45.717Z,-146.80
2018-03-08T04:34:14.192Z,-146.80
2018-03-08T04:36:42.649Z,-146.80
2018-03-08T04:39:11.168Z,-146.80
2018-03-08T04:41:39.659Z,-146.80
2018-03-08T04:44:08.174Z,-146.80
2018-03-08T04:46:36.684Z,-146.80
2018-03-08T04:49:05.154Z,-146.80
2018-03-08T04:51:33.629Z,-146.80
2018-03-08T04:54:02.145Z,-146.80
2018-03-08T04:56:30.612Z,-146.80
2018-03-08T04:58:59.105Z,-146.80
2018-03-08T05:01:27.617Z,-146.80
2018-03-08T05:03:56.457Z,-146.80
2018-03-08T05:06:24.931Z,-146.80
2018-03-08T05:08:53.460Z,-146.80
2018-03-08T05:11:21.943Z,-146.80
2018-03-08T05:13:50.438Z,-146.80
2018-03-08T05:16:18.931Z,-146.80
2018-03-08T05:18:47.390Z,-146.80
2018-03-08T05:21:15.868Z,-146.80
2018-03-08T05:23:44.452Z,-146.80
2018-03-08T05:26:12.898Z,-146.80
2018-03-08T05:28:41.374Z,-146.80
2018-03-08T05:31:09.904Z,-146.80
2018-03-08T05:33:38.388Z,-146.80
2018-03-08T05:36:06.851Z,-146.80
2018-03-08T05:38:35.369Z,-146.80
2018-03-08T05:41:03.824Z,-146.80
2018-03-08T05:43:32.295Z,-146.80
2018-03-08T05:46:00.890Z,-146.80
2018-03-08T05:48:29.363Z,-146.80
2018-03-08T05:50:57.820Z,-146.80
2018-03-08T05:53:26.344Z,-146.80
2018-03-08T05:55:54.792Z,-146.80
2018-03-08T05:58:23.242Z,-146.80
2018-03-08T06:00:51.804Z,-146.80
2018-03-08T06:03:20.286Z,-146.80
2018-03-08T06:05:48.748Z,-146.80
2018-03-08T06:08:17.279Z,-146.80
2018-03-08T06:10:45.755Z,-146.80
2018-03-08T06:13:14.228Z,-146.80
2018-03-08T06:15:42.753Z,-146.80
2018-03-08T06:18:11.235Z,-146.80
2018-03-08T06:20:40.129Z,-146.80
2018-03-08T06:23:08.748Z,-146.80
2018-03-08T06:25:37.214Z,-146.80
2018-03-08T06:28:05.685Z,-146.80
2018-03-08T06:30:34.202Z,-146.80
2018-03-08T06:33:02.673Z,-146.80
2018-03-08T06:35:31.144Z,-146.80
2018-03-08T06:37:59.697Z,-146.80
2018-03-08T06:40:28.162Z,-146.80
2018-03-08T06:42:56.614Z,-146.80
2018-03-08T06:45:25.111Z,-146.80
2018-03-08T06:47:53.588Z,-146.80
2018-03-08T06:50:22.074Z,-146.80
2018-03-08T06:52:50.605Z,-146.80
2018-03-08T06:55:19.076Z,-146.80
2018-03-08T06:57:47.569Z,-146.80
2018-03-08T07:00:16.092Z,-146.80
2018-03-08T07:02:44.626Z,-146.80
2018-03-08T07:05:13.094Z,-146.80
2018-03-08T07:07:41.619Z,-146.80
2018-03-08T07:10:10.150Z,-146.80
2018-03-08T07:12:38.622Z,-146.80
2018-03-08T07:15:07.249Z,-146.80
2018-03-08T07:17:48.430Z,4.71
2018-03-08T07:20:16.917Z,4.74
2018-03-08T07:22:45.400Z,4.69
2018-03-08T07:25:13.828Z,4.78
2018-03-08T07:27:42.293Z,4.79
2018-03-08T07:30:10.715Z,4.94
2018-03-08T07:32:39.134Z,4.96
2018-03-08T07:35:07.626Z,4.95
2018-03-08T07:37:36.072Z,5.01
2018-03-08T07:40:04.545Z,5.02
2018-03-08T07:42:33.029Z,5.10
2018-03-08T07:45:01.471Z,5.19
2018-03-08T07:47:29.941Z,5.16
2018-03-08T07:49:58.428Z,5.18
2018-03-08T07:52:26.855Z,5.30
2018-03-08T07:54:55.269Z,5.43
2018-03-08T07:57:23.743Z,5.51
2018-03-08T07:59:52.193Z,5.58
2018-03-08T08:02:20.625Z,5.60
2018-03-08T08:05:00.896Z,5.63
2018-03-08T08:07:41.065Z,5.65
2018-03-08T08:10:09.544Z,5.63
2018-03-08T08:12:37.971Z,5.58
2018-03-08T08:15:06.403Z,5.57
2018-03-08T08:17:34.864Z,5.52
2018-03-08T08:20:03.307Z,5.49
2018-03-08T08:22:31.728Z,5.56
2018-03-08T08:25:00.208Z,5.56
2018-03-08T08:27:28.656Z,5.55
2018-03-08T08:29:57.086Z,5.53
2018-03-08T08:32:25.566Z,5.53
2018-03-08T08:34:54.058Z,5.58
2018-03-08T08:37:22.494Z,5.62
2018-03-08T08:39:50.959Z,5.61
2018-03-08T08:42:19.386Z,5.64
2018-03-08T08:44:47.823Z,5.66
2018-03-08T08:47:16.349Z,5.68
2018-03-08T08:49:44.807Z,5.66
2018-03-08T08:52:13.257Z,5.78
2018-03-08T08:54:41.761Z,5.84
2018-03-08T08:57:10.209Z,5.91
2018-03-08T08:59:38.652Z,6.05
2018-03-08T09:02:07.129Z,6.08
2018-03-08T09:04:35.563Z,6.13
2018-03-08T09:07:04.109Z,6.25
2018-03-08T09:09:32.607Z,6.39
2018-03-08T09:12:01.038Z,6.75
2018-03-08T09:14:29.465Z,6.70
2018-03-08T09:16:57.926Z,6.88
2018-03-08T09:19:26.353Z,7.18
2018-03-08T09:21:54.815Z,7.26
2018-03-08T09:24:23.307Z,7.14
2018-03-08T09:26:51.748Z,6.98
2018-03-08T09:29:20.187Z,6.78
2018-03-08T09:31:48.679Z,6.86
2018-03-08T09:34:17.107Z,7.07
2018-03-08T09:36:45.568Z,6.81
2018-03-08T09:39:14.043Z,7.11
2018-03-08T09:41:42.476Z,7.18
2018-03-08T09:44:10.907Z,7.46
2018-03-08T09:46:39.398Z,7.63
2018-03-08T09:49:07.890Z,7.64
2018-03-08T09:51:36.295Z,7.80
2018-03-08T09:54:04.796Z,7.59
2018-03-08T09:56:33.203Z,7.79
2018-03-08T09:59:01.646Z,7.75
2018-03-08T10:01:30.885Z,7.79
2018-03-08T10:03:59.318Z,7.79
2018-03-08T10:06:27.755Z,7.68
2018-03-08T10:08:56.305Z,7.82
2018-03-08T10:11:24.733Z,8.02
2018-03-08T10:13:53.156Z,8.06
2018-03-08T10:16:21.625Z,8.09
2018-03-08T10:18:50.049Z,8.36
2018-03-08T10:21:44.124Z,8.62
2018-03-08T10:23:46.997Z,8.58
2018-03-08T10:26:15.422Z,8.68
2018-03-08T10:28:43.834Z,8.93
2018-03-08T10:31:13.148Z,9.15
2018-03-08T10:33:41.574Z,9.20
2018-03-08T10:36:10.000Z,9.31
2018-03-08T10:38:39.276Z,9.50
2018-03-08T10:41:07.706Z,9.60
2018-03-08T10:43:36.145Z,9.56
2018-03-08T10:46:04.653Z,9.77
2018-03-08T10:48:33.071Z,9.69
2018-03-08T10:51:01.886Z,9.33
2018-03-08T10:53:30.350Z,9.60
2018-03-08T10:55:58.758Z,9.65
2018-03-08T10:58:27.173Z,9.66
2018-03-08T11:00:55.627Z,9.85
2018-03-08T11:03:29.483Z,-146.80
2018-03-08T11:05:57.971Z,9.94
2018-03-08T11:08:26.425Z,-146.80
2018-03-08T11:10:54.890Z,-146.80
2018-03-08T11:13:23.373Z,10.28
2018-03-08T11:15:51.832Z,-146.80
2018-03-08T11:18:20.273Z,-146.80
2018-03-08T11:20:48.764Z,-146.80
2018-03-08T11:23:17.213Z,10.45
2018-03-08T11:25:45.638Z,10.37
2018-03-08T11:28:14.157Z,10.35
2018-03-08T11:30:42.608Z,-146.80
2018-03-08T11:33:11.066Z,-146.80
2018-03-08T11:35:39.588Z,-146.80
2018-03-08T11:38:08.031Z,-146.80
2018-03-08T11:40:36.452Z,10.13
2018-03-08T11:43:04.956Z,-146.80
2018-03-08T11:45:33.399Z,-146.80
2018-03-08T11:48:01.853Z,-146.80
2018-03-08T11:50:30.344Z,-146.80
2018-03-08T11:52:58.804Z,-146.80
2018-03-08T11:55:27.271Z,-146.80
2018-03-08T11:57:55.751Z,-146.80
2018-03-08T12:00:24.202Z,-146.80
2018-03-08T12:02:52.688Z,-146.80
2018-03-08T12:05:21.427Z,-146.80
2018-03-08T12:07:49.885Z,-146.80
2018-03-08T12:10:18.352Z,-146.80
2018-03-08T12:12:46.878Z,-146.80
2018-03-08T12:15:15.328Z,-146.80
2018-03-08T12:17:44.022Z,-146.80
2018-03-08T12:20:12.516Z,-146.80
2018-03-08T12:22:40.972Z,-146.80
2018-03-08T12:25:09.448Z,-146.80
2018-03-08T12:27:37.957Z,-146.80
2018-03-08T12:30:06.416Z,-146.80
2018-03-08T12:32:34.877Z,-146.80
2018-03-08T12:35:03.386Z,-146.80
2018-03-08T12:37:31.847Z,-146.80
2018-03-08T12:40:13.376Z,-146.80
2018-03-08T12:42:41.839Z,-146.80
2018-03-08T12:45:10.311Z,-146.80
2018-03-08T12:47:38.813Z,-146.80
2018-03-08T12:50:07.264Z,-146.80
2018-03-08T12:52:35.714Z,-146.80
2018-03-08T12:55:04.219Z,-146.80
2018-03-08T12:57:32.663Z,-146.80
2018-03-08T13:00:01.110Z,-146.80
2018-03-08T13:02:29.621Z,-146.80
2018-03-08T13:04:58.074Z,-146.80
2018-03-08T13:07:26.528Z,-146.80
2018-03-08T13:09:55.044Z,-146.80
2018-03-08T13:12:23.511Z,-146.80
2018-03-08T13:14:51.993Z,-146.80
2018-03-08T13:17:20.482Z,-146.80
2018-03-08T13:19:48.940Z,-146.80
2018-03-08T13:22:17.398Z,-146.80
2018-03-08T13:24:45.874Z,-146.80
2018-03-08T13:27:14.333Z,-146.80
2018-03-08T13:29:42.784Z,-146.80
2018-03-08T13:32:11.306Z,-146.80
2018-03-08T13:34:39.781Z,-146.80
2018-03-08T13:37:08.259Z,-146.80
2018-03-08T13:39:36.781Z,-146.80
2018-03-08T13:42:05.225Z,-146.80
2018-03-08T13:44:33.664Z,-146.80
2018-03-08T13:47:02.177Z,-146.80
2018-03-08T13:49:36.567Z,-146.80
2018-03-08T13:52:05.070Z,-146.80
2018-03-08T13:54:33.497Z,-146.80
2018-03-08T13:57:01.947Z,-146.80
2018-03-08T13:59:30.448Z,-146.80
2018-03-08T14:01:58.894Z,-146.80
2018-03-08T14:04:27.362Z,-146.80
2018-03-08T14:06:55.866Z,-146.80
2018-03-08T14:09:24.379Z,-146.80
2018-03-08T14:11:52.840Z,-146.80
2018-03-08T14:14:21.511Z,-146.80
2018-03-08T14:16:49.988Z,-146.80
2018-03-08T14:19:18.445Z,-146.80
2018-03-08T14:21:46.940Z,-146.80
2018-03-08T14:24:15.397Z,-146.80
2018-03-08T14:26:43.851Z,-146.80
2018-03-08T14:29:12.711Z,-146.80
2018-03-08T14:31:41.147Z,-146.80
2018-03-08T14:34:09.587Z,-146.80
2018-03-08T14:36:38.088Z,-146.80
2018-03-08T14:39:06.535Z,-146.80
2018-03-08T14:41:35.001Z,-146.80
2018-03-08T14:44:03.531Z,-146.80
2018-03-08T14:46:31.983Z,-146.80
2018-03-08T14:49:00.449Z,-146.80
2018-03-08T14:51:28.953Z,-146.80
2018-03-08T14:53:57.395Z,-146.80
2018-03-08T14:56:25.892Z,-146.80
2018-03-08T14:58:54.392Z,-146.80
2018-03-08T15:01:22.887Z,-146.80
2018-03-08T15:03:51.329Z,-146.80
2018-03-08T15:06:19.867Z,-146.80
2018-03-08T15:08:48.593Z,-146.80
2018-03-08T15:11:17.040Z,-146.80
2018-03-08T15:13:45.803Z,-146.80
2018-03-08T15:16:14.252Z,-146.80
2018-03-08T15:18:42.704Z,-146.80
2018-03-08T15:21:11.250Z,-146.80
2018-03-08T15:23:39.715Z,-146.80
2018-03-08T15:26:08.200Z,-146.80
2018-03-08T15:28:36.705Z,-146.80
2018-03-08T15:31:05.187Z,-146.80
2018-03-08T15:33:33.639Z,-146.80
2018-03-08T15:36:02.214Z,-146.80
2018-03-08T15:38:30.669Z,-146.80
2018-03-08T15:40:59.123Z,-146.80
2018-03-08T15:43:27.621Z,-146.80
2018-03-08T15:45:56.074Z,-146.80
2018-03-08T15:48:24.518Z,-146.80
2018-03-08T15:50:53.031Z,-146.80
2018-03-08T15:53:21.481Z,-146.80
2018-03-08T15:55:49.938Z,-146.80
2018-03-08T15:58:18.438Z,-146.80
2018-03-08T16:00:46.894Z,-146.80
2018-03-08T16:03:15.361Z,-146.80
2018-03-08T16:05:43.887Z,-146.80
2018-03-08T16:11:06.421Z,8.33
2018-03-08T16:13:34.830Z,8.33
2018-03-08T16:16:03.272Z,8.36
2018-03-08T16:18:31.734Z,8.23
2018-03-08T16:21:00.152Z,8.15
2018-03-08T16:23:28.566Z,8.07
2018-03-08T16:25:57.869Z,8.03
2018-03-08T16:28:26.275Z,8.02
2018-03-08T16:30:55.438Z,7.93
2018-03-08T16:33:23.945Z,7.88
2018-03-08T16:35:52.392Z,7.74
2018-03-08T16:38:20.825Z,7.74
2018-03-08T16:40:49.285Z,7.70
2018-03-08T16:43:17.704Z,7.69
2018-03-08T16:45:46.114Z,7.62
2018-03-08T16:48:14.620Z,7.59
2018-03-08T16:50:43.052Z,7.57
2018-03-08T16:53:11.473Z,7.47
2018-03-08T16:55:39.954Z,7.40
2018-03-08T16:58:08.370Z,7.40
2018-03-08T17:00:36.823Z,7.37
2018-03-08T17:03:05.290Z,7.34
2018-03-08T17:05:33.733Z,7.31
2018-03-08T17:08:02.152Z,7.27
2018-03-08T17:10:30.606Z,7.21
2018-03-08T17:12:59.011Z,7.21
2018-03-08T17:15:27.447Z,7.13
2018-03-08T17:17:55.912Z,7.15
2018-03-08T17:20:24.360Z,7.11
2018-03-08T17:22:52.776Z,7.12
2018-03-08T17:25:21.244Z,7.11
2018-03-08T17:27:49.677Z,7.09
2018-03-08T17:30:18.106Z,6.98
2018-03-08T17:32:46.593Z,6.94
2018-03-08T17:35:15.018Z,6.96
2018-03-08T17:37:43.466Z,6.89
2018-03-08T17:40:11.950Z,6.91
2018-03-08T17:42:40.367Z,6.87
2018-03-08T17:45:08.785Z,6.81
2018-03-08T17:47:37.263Z,6.78
2018-03-08T17:50:05.697Z,6.78
2018-03-08T17:52:34.127Z,6.71
2018-03-08T17:55:02.583Z,6.62
2018-03-08T17:57:31.026Z,6.57
2018-03-08T17:59:59.514Z,6.47
2018-03-08T18:02:27.932Z,6.49
2018-03-08T18:04:56.358Z,6.46
2018-03-08T18:07:24.779Z,6.47
2018-03-08T18:09:53.264Z,6.46
2018-03-08T18:12:21.678Z,6.47
2018-03-08T18:14:50.095Z,6.45
2018-03-08T18:17:18.582Z,6.43
2018-03-08T18:19:46.999Z,6.39
2018-03-08T18:22:15.426Z,6.34
2018-03-08T18:24:43.887Z,6.38
2018-03-08T18:27:12.335Z,6.40
2018-03-08T18:29:40.745Z,6.40
2018-03-08T18:32:09.234Z,6.36
2018-03-08T18:34:37.669Z,6.38
2018-03-08T18:37:06.088Z,6.32
2018-03-08T18:39:34.614Z,6.27
2018-03-08T18:42:03.020Z,6.26
2018-03-08T18:44:31.449Z,6.22
2018-03-08T18:46:59.912Z,6.21
2018-03-08T18:49:28.329Z,6.23
2018-03-08T18:51:56.746Z,6.20
2018-03-08T18:54:25.196Z,6.23
2018-03-08T18:56:53.629Z,6.16
2018-03-08T18:59:22.030Z,6.17
2018-03-08T19:01:50.489Z,6.21
2018-03-08T19:04:18.920Z,6.13
2018-03-08T19:06:47.346Z,6.09
2018-03-08T19:09:15.820Z,5.99
2018-03-08T19:11:44.230Z,6.01
2018-03-08T19:14:12.684Z,5.97
2018-03-08T19:16:41.181Z,5.96
2018-03-08T19:19:09.585Z,5.95
2018-03-08T19:21:38.246Z,5.93
2018-03-08T19:24:10.362Z,5.84
2018-03-08T19:26:39.135Z,5.89
2018-03-08T19:29:07.560Z,5.87
2018-03-08T19:31:36.069Z,5.92
2018-03-08T19:34:04.483Z,5.87
2018-03-08T19:36:32.900Z,5.85
2018-03-08T19:39:01.959Z,5.85
2018-03-08T19:41:30.384Z,5.87
2018-03-08T19:43:58.867Z,5.85
2018-03-08T19:46:27.312Z,5.88
2018-03-08T19:48:56.010Z,5.84
2018-03-08T19:51:24.437Z,5.86
2018-03-08T19:53:53.014Z,5.85
2018-03-08T19:56:21.608Z,5.80
2018-03-08T19:58:50.061Z,5.84
2018-03-08T20:01:18.502Z,5.87
2018-03-08T20:03:46.939Z,5.78
2018-03-08T20:06:15.365Z,5.80
2018-03-08T20:08:44.158Z,5.74
2018-03-08T20:11:12.579Z,5.64
2018-03-08T20:13:41.002Z,5.60
2018-03-08T20:16:09.482Z,5.64
2018-03-08T20:18:37.917Z,5.60
2018-03-08T20:21:06.389Z,5.55
2018-03-08T20:23:54.528Z,5.67
2018-03-08T20:26:22.935Z,5.68
2018-03-08T20:28:51.335Z,5.75
2018-03-08T20:31:19.808Z,5.71
2018-03-08T20:33:48.275Z,5.69
2018-03-08T20:36:16.697Z,5.67
2018-03-08T20:38:45.192Z,5.73
2018-03-08T20:41:13.599Z,5.65
2018-03-08T20:43:42.020Z,5.68
2018-03-08T20:46:10.491Z,5.60
2018-03-08T20:48:38.910Z,5.53
2018-03-08T20:51:07.333Z,5.55
2018-03-08T20:53:35.778Z,5.51
2018-03-08T20:56:04.197Z,5.43
2018-03-08T20:58:32.595Z,5.44
2018-03-08T21:01:01.055Z,5.42
2018-03-08T21:03:29.463Z,5.49
2018-03-08T21:05:57.868Z,5.44
2018-03-08T21:08:26.320Z,5.40
2018-03-08T21:10:54.742Z,5.41
2018-03-08T21:13:23.168Z,5.45
2018-03-08T21:15:51.622Z,5.43
2018-03-08T21:18:20.041Z,5.13
2018-03-08T21:20:48.457Z,5.07
2018-03-08T21:23:16.926Z,4.95
2018-03-08T21:25:45.327Z,4.81
2018-03-08T21:28:13.758Z,4.71
2018-03-08T21:30:42.227Z,4.71
2018-03-08T21:33:11.902Z,4.62
2018-03-08T21:35:40.315Z,4.55
2018-03-08T21:38:08.762Z,4.54
2018-03-08T21:40:37.170Z,4.52
2018-03-08T21:43:05.591Z,4.44
2018-03-08T21:45:34.035Z,4.40
2018-03-08T21:48:02.466Z,4.45
2018-03-08T21:50:30.874Z,4.58
2018-03-08T21:52:59.343Z,4.68
2018-03-08T21:55:27.761Z,4.76
2018-03-08T21:57:56.180Z,4.81
2018-03-08T22:00:24.624Z,4.78
2018-03-08T22:02:53.045Z,4.73
2018-03-08T22:05:21.446Z,4.73
2018-03-08T22:07:49.916Z,4.69
2018-03-08T22:10:18.347Z,4.67
2018-03-08T22:12:46.786Z,4.72
2018-03-08T22:15:15.251Z,4.79
2018-03-08T22:17:43.690Z,4.81
2018-03-08T22:20:12.117Z,4.83
2018-03-08T22:22:40.608Z,4.82
2018-03-08T22:25:09.035Z,4.84
2018-03-08T22:27:37.470Z,4.86
2018-03-08T22:30:05.976Z,4.86
2018-03-08T22:32:34.403Z,-146.80
2018-03-08T22:35:02.838Z,4.84
2018-03-08T22:37:31.332Z,-146.80
2018-03-08T22:39:59.757Z,4.87
2018-03-08T22:42:28.195Z,-146.80
2018-03-08T22:44:56.657Z,4.86
2018-03-08T22:47:25.068Z,4.89
2018-03-08T22:49:53.496Z,4.95
2018-03-08T22:52:21.958Z,-146.80
2018-03-08T22:54:50.395Z,4.88
2018-03-08T22:57:18.818Z,4.93
2018-03-08T22:59:47.302Z,-146.80
2018-03-08T23:02:15.818Z,-146.80
2018-03-08T23:04:44.252Z,4.85
2018-03-08T23:07:12.738Z,4.89
2018-03-08T23:09:41.176Z,-146.80
2018-03-08T23:12:09.627Z,4.87
2018-03-08T23:14:38.090Z,4.91
2018-03-08T23:17:06.533Z,4.91
2018-03-08T23:19:34.939Z,4.82
2018-03-08T23:22:03.390Z,4.77
2018-03-08T23:24:31.799Z,4.67
2018-03-08T23:27:00.227Z,4.64
2018-03-08T23:29:28.711Z,4.51
2018-03-08T23:31:57.134Z,4.44
2018-03-08T23:34:25.569Z,4.43
2018-03-08T23:36:54.036Z,4.52
2018-03-08T23:39:22.456Z,4.47
2018-03-08T23:41:50.890Z,4.42
2018-03-08T23:44:19.348Z,4.41
2018-03-08T23:46:47.783Z,4.50
2018-03-08T23:49:16.216Z,4.46
2018-03-08T23:51:44.879Z,4.40
2018-03-08T23:54:13.290Z,4.34
2018-03-08T23:56:41.705Z,4.46
2018-03-08T23:59:10.158Z,4.47
